ADDS TAF Board (Experimental) INFO Settings

IDs: Format: Expanded Condensed

KBWI - Baltimore-Washington, MD, US

Issued at 0539 UTC 01 Mar 2015
Updated at: 0651 UTC 01 Mar 2015
Time0554Z 01/07Z 01/08Z 01/09Z 01/10Z 01/11Z 01/12Z 01/13Z 01/14Z 01/15Z 01/16Z 01/17Z 01/18Z 01/19Z
Type OBS PRVL PRVL PRVL PRVL PRVL PRVL PRVL PRVL PRVL PRVL PRVL PRVL PRVL
VIS 10 >6 >6 >6 >6 >6 >6 >6 3 3 2 2 2 2
CIG -- -- -- -- -- -- -- -- 35 35 9 9 9 9
Cover SCT SCT SCT SCT SCT SCT SCT SCT OVC OVC OVC OVC OVC OVC
FltCat VFR VFR VFR VFR VFR VFR VFR VFR MVFR MVFR IFR IFR IFR IFR
WX -- -- -- -- -- -- -- -- -SN BR -SN BR -FZRA SN PL BR -FZRA SN PL BR -FZRA SN PL BR -FZRA SN PL BR
WDir VRB VRB VRB VRB VRB VRB VRB VRB VRB VRB 170 170 170 170
WSpd 0 0 0 0 0 0 0 0 3 3 5 5 5 5
WGst -- -- -- -- -- -- -- -- -- -- -- -- -- --
R04/22
XWnd VRB VRB VRB VRB VRB VRB VRB VRB VRB VRB -3 -3 -3 -3
HWnd VRB VRB VRB VRB VRB VRB VRB VRB VRB VRB -4 -4 -4 -4
R10/28
XWnd VRB VRB VRB VRB VRB VRB VRB VRB VRB VRB -5 -5 -5 -5
HWnd VRB VRB VRB VRB VRB VRB VRB VRB VRB VRB 1 1 1 1
R15/33
XWnd VRB VRB VRB VRB VRB VRB VRB VRB VRB VRB -2 -2 -2 -2
HWnd VRB VRB VRB VRB VRB VRB VRB VRB VRB VRB 4 4 4 4

NOTE: TEMPO conditions in [brackets]. Keep in mind TEMPO conditions might be better (lower impact) than prevailing conditions.

Raw TAF
KBWI 010539Z 0106/0212 00000KT P6SM SCT080
  FM011400 VRB03KT 3SM -SN BR BKN035 OVC060
  FM011600 17005KT 2SM -FZRASNPL BR BKN009 OVC030
  FM012100 17005KT 3SM -FZRA BR BKN009 OVC020
  FM020000 17006KT P6SM BKN009 OVC020
  FM020600 23005KT P6SM SCT020 OVC035


Raw METAR
KBWI 010554Z 00000KT 10SM SCT250 M09/M13 A3071 RMK AO2 SLP403 4/001 T10891133 11044 21089 56017
KBWI 010454Z 00000KT 10SM SCT250 M08/M14 A3073 RMK AO2 SLP407 T10831139 410061100
KBWI 010354Z 00000KT 10SM CLR M08/M14 A3075 RMK AO2 SLP414 T10831144

METAR Board
Radar Display
Forecast Discussion

TAF Board Legend

Potential Impact
Threat None Slight Moderate High
Visibility (sm) ≥5.1 5.1>X≥3 3>X≥1 <1
Ceiling (100 ft) ≥30.1 30.1>X≥10 10>X≥5 <5
Wind Speed (kt) <10 10≤X<20 20≤X<30 ≥30
Wind Gust (kt) <15 15≤X<25 25≤X<35 ≥35
Weather No Wx Reported VCTS,-TS,-FZRA,SN TS,FZRA +TS,+FZRA,+SN